createdAt,value
2017-04-06T00:00:14.955Z,0
2017-04-06T00:01:24.511Z,0
2017-04-06T00:02:34.659Z,0
2017-04-06T00:03:44.543Z,0
2017-04-06T00:04:54.781Z,0
2017-04-06T00:06:04.349Z,0
2017-04-06T00:07:14.270Z,0
2017-04-06T00:08:23.936Z,0
2017-04-06T00:09:34.437Z,0
2017-04-06T00:10:44.268Z,0
2017-04-06T00:11:53.847Z,0
2017-04-06T00:13:03.722Z,0
2017-04-06T00:14:13.604Z,0
2017-04-06T00:15:23.212Z,0
2017-04-06T00:16:33.084Z,0
2017-04-06T00:17:42.720Z,0
2017-04-06T00:18:52.658Z,0
2017-04-06T00:20:02.266Z,0
2017-04-06T00:21:12.152Z,0
2017-04-06T00:22:21.978Z,0
2017-04-06T00:23:32.127Z,0
2017-04-06T00:24:41.876Z,0
2017-04-06T00:25:51.449Z,0
2017-04-06T00:27:01.447Z,0
2017-04-06T00:28:11.626Z,0
2017-04-06T00:29:21.254Z,0
2017-04-06T00:30:31.273Z,0
2017-04-06T00:31:41.152Z,0
2017-04-06T00:32:51.034Z,0
2017-04-06T00:34:01.222Z,0
2017-04-06T00:35:11.101Z,0
2017-04-06T00:36:20.391Z,0
2017-04-06T00:37:29.670Z,0
2017-04-06T00:38:39.278Z,0
2017-04-06T00:39:49.089Z,0
2017-04-06T00:40:58.351Z,0
2017-04-06T00:42:08.327Z,0
2017-04-06T00:43:18.412Z,0
2017-04-06T00:44:27.979Z,0
2017-04-06T00:45:38.169Z,0
2017-04-06T00:46:48.163Z,0
2017-04-06T00:47:58.049Z,0
2017-04-06T00:49:07.929Z,0
2017-04-06T00:50:17.499Z,0
2017-04-06T00:51:27.719Z,0
2017-04-06T00:52:37.277Z,0
2017-04-06T00:53:47.212Z,0
2017-04-06T00:54:57.192Z,0
2017-04-06T00:56:07.117Z,0
2017-04-06T00:57:17.257Z,0
2017-04-06T00:58:26.527Z,0
2017-04-06T00:59:36.442Z,0
2017-04-06T01:00:46.344Z,0
2017-04-06T01:01:56.221Z,0
2017-04-06T01:03:06.185Z,0
2017-04-06T01:04:16.106Z,0
2017-04-06T01:05:25.989Z,0
2017-04-06T01:06:35.555Z,0
2017-04-06T01:07:44.845Z,0
2017-04-06T01:08:54.963Z,0
2017-04-06T01:10:04.574Z,0
2017-04-06T01:11:13.842Z,0
2017-04-06T01:12:23.410Z,0
2017-04-06T01:13:33.016Z,0
2017-04-06T01:14:43.304Z,0
2017-04-06T01:15:53.183Z,0
2017-04-06T01:17:03.108Z,0
2017-04-06T01:18:12.780Z,0
2017-04-06T01:19:22.343Z,0
2017-04-06T01:20:32.221Z,0
2017-04-06T01:21:42.170Z,0
2017-04-06T01:22:51.832Z,0
2017-04-06T01:24:01.401Z,0
2017-04-06T01:25:11.500Z,0
2017-04-06T01:26:21.312Z,0
2017-04-06T01:27:31.207Z,0
2017-04-06T01:28:41.089Z,0
2017-04-06T01:29:50.905Z,0
2017-04-06T01:31:00.590Z,0
2017-04-06T01:32:10.718Z,0
2017-04-06T01:33:20.596Z,0
2017-04-06T01:34:30.467Z,0
2017-04-06T01:35:40.457Z,0
2017-04-06T01:36:50.358Z,0
2017-04-06T01:38:00.176Z,0
2017-04-06T01:39:09.745Z,0
2017-04-06T01:40:19.035Z,0
2017-04-06T01:41:28.928Z,0
2017-04-06T01:42:38.806Z,0
2017-04-06T01:43:48.614Z,0
2017-04-06T01:44:58.547Z,0
2017-04-06T01:46:08.115Z,0
2017-04-06T01:47:18.009Z,0
2017-04-06T01:48:27.563Z,0
2017-04-06T01:49:37.761Z,0
2017-04-06T01:50:47.648Z,0
2017-04-06T01:51:57.254Z,0
2017-04-06T01:53:06.812Z,0
2017-04-06T01:54:16.580Z,0
2017-04-06T01:55:26.453Z,0
2017-04-06T01:56:36.016Z,0
2017-04-06T01:57:45.610Z,0
2017-04-06T01:58:55.663Z,0
2017-04-06T02:00:04.932Z,0
2017-04-06T02:01:14.485Z,0
2017-04-06T02:02:24.370Z,0
2017-04-06T02:03:33.980Z,0
2017-04-06T02:04:43.539Z,0
2017-04-06T02:05:53.431Z,0
2017-04-06T02:07:03.317Z,0
2017-04-06T02:08:12.921Z,0
2017-04-06T02:09:22.795Z,0
2017-04-06T02:10:32.368Z,0
2017-04-06T02:11:42.308Z,0
2017-04-06T02:12:52.527Z,0
2017-04-06T02:14:02.411Z,0
2017-04-06T02:15:12.012Z,0
2017-04-06T02:16:21.587Z,0
2017-04-06T02:17:31.467Z,0
2017-04-06T02:18:41.546Z,0
2017-04-06T02:19:51.498Z,0
2017-04-06T02:21:01.121Z,0
2017-04-06T02:22:11.047Z,0
2017-04-06T02:23:20.953Z,0
2017-04-06T02:24:31.094Z,0
2017-04-06T02:25:41.051Z,0
2017-04-06T02:26:50.963Z,0
2017-04-06T02:28:00.210Z,0
2017-04-06T02:29:10.095Z,0
2017-04-06T02:30:20.277Z,0
2017-04-06T02:31:29.842Z,0
2017-04-06T02:32:39.797Z,0
2017-04-06T02:33:49.711Z,0
2017-04-06T02:34:59.312Z,0
2017-04-06T02:36:09.521Z,0
2017-04-06T02:37:19.091Z,0
2017-04-06T02:38:28.779Z,0
2017-04-06T02:39:38.361Z,0
2017-04-06T02:40:48.301Z,0
2017-04-06T02:41:58.536Z,0
2017-04-06T02:43:08.442Z,0
2017-04-06T02:44:18.368Z,0
2017-04-06T02:45:28.270Z,0
2017-04-06T02:46:37.920Z,0
2017-04-06T02:47:48.076Z,0
2017-04-06T02:48:57.730Z,0
2017-04-06T02:50:07.628Z,0
2017-04-06T02:51:17.575Z,0
2017-04-06T02:52:27.534Z,0
2017-04-06T02:53:37.356Z,0
2017-04-06T02:54:47.012Z,0
2017-04-06T02:55:56.643Z,0
2017-04-06T02:57:06.225Z,0
2017-04-06T02:58:15.490Z,0
2017-04-06T02:59:25.380Z,0
2017-04-06T03:00:35.282Z,0
2017-04-06T03:01:45.445Z,0
2017-04-06T03:02:55.410Z,0
2017-04-06T03:04:05.315Z,0
2017-04-06T03:05:15.519Z,0
2017-04-06T03:06:25.422Z,0
2017-04-06T03:07:35.340Z,0
2017-04-06T03:08:45.331Z,0
2017-04-06T03:09:55.260Z,0
2017-04-06T03:11:05.528Z,0
2017-04-06T03:12:15.504Z,0
2017-04-06T03:13:25.406Z,0
2017-04-06T03:14:34.986Z,0
2017-04-06T03:15:45.161Z,0
2017-04-06T03:16:55.341Z,0
2017-04-06T03:18:05.286Z,0
2017-04-06T03:19:15.331Z,0
2017-04-06T03:20:25.260Z,0
2017-04-06T03:21:35.180Z,0
2017-04-06T03:22:45.360Z,0
2017-04-06T03:23:55.271Z,0
2017-04-06T03:25:05.032Z,0
2017-04-06T03:26:14.987Z,0
2017-04-06T03:27:24.970Z,0
2017-04-06T03:28:34.876Z,0
2017-04-06T03:29:44.816Z,0
2017-04-06T03:30:54.763Z,0
2017-04-06T03:32:04.365Z,0
2017-04-06T03:33:14.261Z,0
2017-04-06T03:34:24.087Z,0
2017-04-06T03:35:33.352Z,0
2017-04-06T03:36:42.936Z,0
2017-04-06T03:37:52.842Z,0
2017-04-06T03:39:02.774Z,0
2017-04-06T03:40:12.982Z,0
2017-04-06T03:41:22.923Z,0
2017-04-06T03:42:32.821Z,0
2017-04-06T03:43:42.438Z,0
2017-04-06T03:44:52.347Z,0
2017-04-06T03:46:02.660Z,0
2017-04-06T03:47:12.561Z,0
2017-04-06T03:48:22.192Z,0
2017-04-06T03:49:32.124Z,0
2017-04-06T03:50:42.036Z,0
2017-04-06T03:51:52.181Z,0
2017-04-06T03:53:02.071Z,0
2017-04-06T03:54:12.108Z,0
2017-04-06T03:55:21.696Z,0
2017-04-06T03:56:31.354Z,0
2017-04-06T03:57:41.543Z,0
2017-04-06T03:58:51.400Z,0
2017-04-06T04:00:01.429Z,0
2017-04-06T04:01:11.358Z,0
2017-04-06T04:02:21.289Z,0
2017-04-06T04:03:31.197Z,0
2017-04-06T04:04:40.848Z,4
2017-04-06T04:05:50.106Z,4
2017-04-06T04:07:00.012Z,0
2017-04-06T04:08:09.638Z,4
2017-04-06T04:09:19.831Z,4
2017-04-06T04:10:29.424Z,8
2017-04-06T04:11:39.327Z,4
2017-04-06T04:12:49.236Z,8
2017-04-06T04:13:59.293Z,8
2017-04-06T04:15:09.594Z,8
2017-04-06T04:16:19.566Z,12
2017-04-06T04:17:29.189Z,16
2017-04-06T04:18:39.088Z,20
2017-04-06T04:19:48.668Z,24
2017-04-06T04:20:58.870Z,28
2017-04-06T04:22:08.819Z,36
2017-04-06T04:23:18.392Z,44
2017-04-06T04:24:28.006Z,52
2017-04-06T04:25:37.967Z,60
2017-04-06T04:26:47.876Z,68
2017-04-06T04:27:57.167Z,84
2017-04-06T04:29:06.758Z,100
2017-04-06T04:30:16.755Z,112
2017-04-06T04:31:26.377Z,132
2017-04-06T04:32:36.523Z,148
2017-04-06T04:33:46.500Z,168
2017-04-06T04:34:56.122Z,192
2017-04-06T04:36:05.389Z,216
2017-04-06T04:37:15.154Z,244
2017-04-06T04:38:57.164Z,284
2017-04-06T04:40:07.325Z,312
2017-04-06T04:41:17.300Z,344
2017-04-06T04:42:26.872Z,380
2017-04-06T04:43:37.063Z,416
2017-04-06T04:44:46.967Z,452
2017-04-06T04:45:56.597Z,488
2017-04-06T04:47:06.495Z,528
2017-04-06T04:48:16.139Z,568
2017-04-06T04:49:26.450Z,612
2017-04-06T04:50:36.364Z,660
2017-04-06T04:51:46.330Z,704
2017-04-06T04:52:56.233Z,748
2017-04-06T04:54:05.513Z,792
2017-04-06T04:55:15.731Z,840
2017-04-06T04:56:25.626Z,888
2017-04-06T04:57:35.578Z,936
2017-04-06T04:58:45.158Z,984
2017-04-06T04:59:54.786Z,1032
2017-04-06T05:01:05.077Z,1080
2017-04-06T05:02:14.665Z,1124
2017-04-06T05:03:24.243Z,1172
2017-04-06T05:04:33.825Z,1224
2017-04-06T05:05:43.496Z,1276
2017-04-06T05:06:53.711Z,1328
2017-04-06T05:08:03.392Z,1380
2017-04-06T05:09:12.975Z,1440
2017-04-06T05:10:23.039Z,1488
2017-04-06T05:11:32.961Z,1524
2017-04-06T05:12:42.839Z,1568
2017-04-06T05:13:52.106Z,1624
2017-04-06T05:15:02.070Z,1676
2017-04-06T05:16:12.069Z,1736
2017-04-06T05:17:21.978Z,1808
2017-04-06T05:18:31.812Z,1860
2017-04-06T05:19:41.428Z,1920
2017-04-06T05:20:51.346Z,2036
2017-04-06T05:22:00.635Z,2196
2017-04-06T05:23:10.601Z,2152
2017-04-06T05:24:20.778Z,2084
2017-04-06T05:25:30.339Z,2116
2017-04-06T05:26:40.279Z,2164
2017-04-06T05:27:50.221Z,2204
2017-04-06T05:29:00.151Z,2260
2017-04-06T05:30:10.118Z,2308
2017-04-06T05:31:19.693Z,2352
2017-04-06T05:32:29.338Z,2396
2017-04-06T05:33:39.295Z,2444
2017-04-06T05:34:48.588Z,2484
2017-04-06T05:35:58.870Z,2540
2017-04-06T05:37:08.885Z,2592
2017-04-06T05:38:18.786Z,2636
2017-04-06T05:39:28.062Z,2684
2017-04-06T05:40:38.093Z,2720
2017-04-06T05:41:48.288Z,2764
2017-04-06T05:42:58.225Z,2812
2017-04-06T05:44:08.137Z,2828
2017-04-06T05:45:18.046Z,2892
2017-04-06T05:46:27.955Z,2940
2017-04-06T05:47:37.779Z,2996
2017-04-06T05:48:47.039Z,3044
2017-04-06T05:49:56.370Z,3076
2017-04-06T05:51:06.267Z,3128
2017-04-06T05:52:16.189Z,3180
2017-04-06T05:53:26.052Z,3212
2017-04-06T05:54:35.988Z,3224
2017-04-06T05:55:45.893Z,3236
2017-04-06T05:56:55.854Z,3256
2017-04-06T05:58:05.944Z,3328
2017-04-06T05:59:15.781Z,3340
2017-04-06T06:00:25.722Z,3380
2017-04-06T06:01:35.657Z,3440
2017-04-06T06:02:45.579Z,3472
2017-04-06T06:03:55.533Z,3488
2017-04-06T06:05:05.774Z,3576
2017-04-06T06:06:15.364Z,3600
2017-04-06T06:07:24.949Z,3640
2017-04-06T06:08:34.882Z,3728
2017-04-06T06:09:44.461Z,3756
2017-04-06T06:10:54.393Z,3704
2017-04-06T06:12:04.343Z,3864
2017-04-06T06:13:14.272Z,3560
2017-04-06T06:14:24.241Z,3768
2017-04-06T06:15:34.182Z,5248
2017-04-06T06:16:44.021Z,4464
2017-04-06T06:17:53.947Z,4016
2017-04-06T06:19:04.028Z,3916
2017-04-06T06:20:13.988Z,4784
2017-04-06T06:21:23.890Z,5144
2017-04-06T06:22:33.781Z,4884
2017-04-06T06:23:43.693Z,4608
2017-04-06T06:24:53.605Z,4920
2017-04-06T06:26:03.525Z,5176
2017-04-06T06:27:13.423Z,4672
2017-04-06T06:28:23.267Z,4900
2017-04-06T06:29:32.850Z,5136
2017-04-06T06:30:42.819Z,5376
2017-04-06T06:31:52.441Z,5948
2017-04-06T06:33:02.340Z,6360
2017-04-06T06:34:12.492Z,6168
2017-04-06T06:35:22.138Z,7408
2017-04-06T06:36:31.721Z,7268
2017-04-06T06:37:41.645Z,7728
2017-04-06T06:38:51.606Z,6532
2017-04-06T06:40:01.761Z,7460
2017-04-06T06:41:11.668Z,8148
2017-04-06T06:42:21.243Z,7572
2017-04-06T06:43:30.953Z,8840
2017-04-06T06:44:41.045Z,7792
2017-04-06T06:45:51.274Z,8052
2017-04-06T06:47:00.844Z,7204
2017-04-06T06:48:10.141Z,8104
2017-04-06T06:49:20.090Z,7708
2017-04-06T06:50:29.995Z,7428
2017-04-06T06:51:40.238Z,8116
2017-04-06T06:52:50.175Z,7076
2017-04-06T06:53:59.433Z,6716
2017-04-06T06:55:09.009Z,7268
2017-04-06T06:56:18.595Z,6292
2017-04-06T06:57:28.434Z,7476
2017-04-06T06:58:38.352Z,8768
2017-04-06T06:59:47.939Z,8264
2017-04-06T07:00:57.513Z,8592
2017-04-06T07:02:07.196Z,8068
2017-04-06T07:03:16.738Z,8716
2017-04-06T07:04:25.682Z,8344
2017-04-06T07:05:34.954Z,7376
2017-04-06T07:06:44.878Z,6768
2017-04-06T07:07:54.799Z,8276
2017-04-06T07:09:04.956Z,8024
2017-04-06T07:10:14.854Z,9404
2017-04-06T07:11:24.794Z,9880
2017-04-06T07:12:34.612Z,8988
2017-04-06T07:13:43.945Z,9092
2017-04-06T07:14:54.202Z,11464
2017-04-06T07:16:04.207Z,10164
2017-04-06T07:17:14.157Z,10008
2017-04-06T07:18:23.740Z,10820
2017-04-06T07:19:33.633Z,9676
2017-04-06T07:20:43.567Z,11944
2017-04-06T07:21:53.532Z,13104
2017-04-06T07:23:03.458Z,11824
2017-04-06T07:24:13.044Z,11416
2017-04-06T07:25:22.961Z,13108
2017-04-06T07:26:32.838Z,11740
2017-04-06T07:27:42.520Z,11476
2017-04-06T07:28:52.471Z,9964
2017-04-06T07:30:02.481Z,8116
2017-04-06T07:31:12.386Z,12360
2017-04-06T07:32:22.538Z,14540
2017-04-06T07:33:32.440Z,11040
2017-04-06T07:34:42.056Z,12560
2017-04-06T07:35:51.646Z,13384
2017-04-06T07:37:01.259Z,11336
2017-04-06T07:38:11.281Z,11204
2017-04-06T07:39:21.220Z,14256
2017-04-06T07:40:31.126Z,10664
2017-04-06T07:41:40.393Z,12748
2017-04-06T07:42:50.303Z,10940
2017-04-06T07:44:00.609Z,10304
2017-04-06T07:45:10.620Z,11448
2017-04-06T07:46:20.555Z,11184
2017-04-06T07:47:30.248Z,8796
2017-04-06T07:48:40.364Z,9592
2017-04-06T07:49:50.906Z,10504
2017-04-06T07:51:00.862Z,10036
2017-04-06T07:52:10.133Z,9960
2017-04-06T07:53:20.206Z,10156
2017-04-06T07:54:29.796Z,10068
2017-04-06T07:55:39.979Z,9860
2017-04-06T07:56:49.326Z,9404
2017-04-06T07:57:59.329Z,9812
2017-04-06T07:59:09.828Z,9824
2017-04-06T08:00:19.367Z,10032
2017-04-06T08:01:29.858Z,10748
2017-04-06T08:02:40.032Z,11260
2017-04-06T08:03:50.322Z,10448
2017-04-06T08:05:00.817Z,12276
2017-04-06T08:06:11.450Z,14524
2017-04-06T08:07:22.254Z,18336
2017-04-06T08:08:32.740Z,17952
2017-04-06T08:09:43.229Z,18400
2017-04-06T08:10:53.757Z,16064
2017-04-06T08:12:03.923Z,13956
2017-04-06T08:13:14.027Z,12272
2017-04-06T08:14:24.650Z,10708
2017-04-06T08:15:35.214Z,10860
2017-04-06T08:16:45.889Z,11608
2017-04-06T08:17:55.744Z,11840
2017-04-06T08:19:06.518Z,11376
2017-04-06T08:20:17.111Z,11540
2017-04-06T08:21:27.402Z,9060
2017-04-06T08:22:37.318Z,12148
2017-04-06T08:23:48.515Z,12216
2017-04-06T08:24:59.367Z,12380
2017-04-06T08:26:09.963Z,13088
2017-04-06T08:27:20.186Z,13344
2017-04-06T08:28:30.346Z,14644
2017-04-06T08:29:42.022Z,18144
2017-04-06T08:30:53.941Z,18528
2017-04-06T08:32:03.784Z,21760
2017-04-06T08:33:13.963Z,36256
2017-04-06T08:34:24.448Z,65280
2017-04-06T08:35:34.990Z,90912
2017-04-06T08:36:45.165Z,35488
2017-04-06T08:37:55.666Z,15232
2017-04-06T08:39:07.184Z,57376
2017-04-06T08:40:17.391Z,70912
2017-04-06T08:41:27.878Z,65856
2017-04-06T08:42:38.667Z,46912
2017-04-06T08:43:48.892Z,74656
2017-04-06T08:44:59.388Z,79072
2017-04-06T08:46:10.036Z,81216
2017-04-06T08:47:20.541Z,79360
2017-04-06T08:48:31.315Z,63104
2017-04-06T08:49:41.923Z,63648
2017-04-06T08:50:52.502Z,73376
2017-04-06T08:52:02.848Z,65216
2017-04-06T08:53:13.549Z,87296
2017-04-06T08:54:24.323Z,74144
2017-04-06T08:55:35.518Z,76000
2017-04-06T08:56:46.057Z,78976
2017-04-06T08:57:57.538Z,91552
2017-04-06T08:59:07.432Z,52288
2017-04-06T09:00:17.927Z,69152
2017-04-06T09:01:28.497Z,63456
2017-04-06T09:02:38.602Z,82272
2017-04-06T09:03:49.170Z,107328
2017-04-06T09:04:59.735Z,91456
2017-04-06T09:06:10.256Z,86560
2017-04-06T09:07:20.807Z,55520
2017-04-06T09:08:30.994Z,14616
2017-04-06T09:09:41.580Z,34592
2017-04-06T09:10:53.084Z,93952
2017-04-06T09:12:03.884Z,117152
2017-04-06T09:13:14.424Z,82272
2017-04-06T09:14:24.635Z,14500
2017-04-06T09:15:34.976Z,29920
2017-04-06T09:16:45.492Z,122432
2017-04-06T09:17:56.088Z,89728
2017-04-06T09:19:06.663Z,25824
2017-04-06T09:20:17.148Z,25472
2017-04-06T09:21:27.341Z,78272
2017-04-06T09:22:37.862Z,63360
2017-04-06T09:23:49.717Z,97088
2017-04-06T09:25:00.289Z,112672
2017-04-06T09:26:10.821Z,112992
2017-04-06T09:27:21.039Z,24448
2017-04-06T09:28:31.744Z,14372
2017-04-06T09:29:42.246Z,20544
2017-04-06T09:30:52.810Z,101248
2017-04-06T09:32:03.323Z,101280
2017-04-06T09:33:13.894Z,81824
2017-04-06T09:34:24.412Z,89856
2017-04-06T09:35:34.852Z,77824
2017-04-06T09:36:45.043Z,84448
2017-04-06T09:37:55.522Z,102208
2017-04-06T09:39:05.865Z,116256
2017-04-06T09:40:16.084Z,90304
2017-04-06T09:41:26.875Z,90368
2017-04-06T09:42:37.499Z,88352
2017-04-06T09:43:48.059Z,76096
2017-04-06T09:44:58.242Z,88576
2017-04-06T09:46:08.773Z,57120
2017-04-06T09:47:19.598Z,106720
2017-04-06T09:48:30.233Z,17216
2017-04-06T09:49:40.753Z,22720
2017-04-06T09:50:50.963Z,91296
2017-04-06T09:52:01.653Z,79872
2017-04-06T09:53:12.016Z,114528
2017-04-06T09:54:22.607Z,118272
2017-04-06T09:55:33.152Z,133088
2017-04-06T09:57:15.506Z,117920
2017-04-06T09:58:26.251Z,131168
2017-04-06T09:59:36.763Z,113472
2017-04-06T10:00:46.986Z,131264
2017-04-06T10:01:57.240Z,17632
2017-04-06T10:03:07.750Z,11564
2017-04-06T10:04:18.229Z,96064
2017-04-06T10:05:28.437Z,119360
2017-04-06T10:06:38.648Z,113856
2017-04-06T10:07:48.506Z,107296
2017-04-06T10:08:58.687Z,96640
2017-04-06T10:10:10.475Z,40672
2017-04-06T10:11:21.113Z,89312
2017-04-06T10:12:31.643Z,36928
2017-04-06T10:13:42.165Z,143360
2017-04-06T10:14:52.741Z,119040
2017-04-06T10:16:03.549Z,115808
2017-04-06T10:17:14.090Z,26272
2017-04-06T10:18:24.614Z,31360
2017-04-06T10:19:35.362Z,99424
2017-04-06T10:20:45.604Z,114784
2017-04-06T10:21:56.038Z,106976
2017-04-06T10:23:06.606Z,22720
2017-04-06T10:24:17.164Z,38400
2017-04-06T10:25:27.734Z,116992
2017-04-06T10:26:37.944Z,119680
2017-04-06T10:27:48.745Z,69600
2017-04-06T10:28:59.113Z,104128
2017-04-06T10:30:10.273Z,92544
2017-04-06T10:31:21.817Z,113472
2017-04-06T10:32:32.661Z,125792
2017-04-06T10:33:43.101Z,111264
2017-04-06T10:34:54.392Z,103584
2017-04-06T10:36:04.900Z,135232
2017-04-06T10:37:15.441Z,127392
2017-04-06T10:38:25.960Z,16544
2017-04-06T10:39:36.759Z,15848
2017-04-06T10:40:47.275Z,18368
2017-04-06T10:41:56.823Z,23808
2017-04-06T10:43:07.060Z,89792
2017-04-06T10:44:17.739Z,93824
2017-04-06T10:45:28.658Z,125120
2017-04-06T10:46:38.845Z,125376
2017-04-06T10:47:49.040Z,109632
2017-04-06T10:48:59.266Z,116928
2017-04-06T10:50:09.799Z,90688
2017-04-06T10:51:20.503Z,24384
2017-04-06T10:52:30.373Z,23584
2017-04-06T10:53:40.552Z,22048
2017-04-06T10:54:51.495Z,22464
2017-04-06T10:56:02.634Z,118368
2017-04-06T10:57:13.084Z,127840
2017-04-06T10:58:23.604Z,130048
2017-04-06T10:59:35.171Z,114368
2017-04-06T11:00:45.390Z,109696
2017-04-06T11:01:55.637Z,130720
2017-04-06T11:03:07.433Z,27040
2017-04-06T11:04:17.802Z,94304
2017-04-06T11:05:28.371Z,99488
2017-04-06T11:06:38.208Z,84768
2017-04-06T11:07:48.746Z,82016
2017-04-06T11:08:59.668Z,98400
2017-04-06T11:10:10.181Z,59424
2017-04-06T11:11:20.519Z,18400
2017-04-06T11:12:31.118Z,18944
2017-04-06T11:13:41.309Z,83584
2017-04-06T11:14:52.239Z,90112
2017-04-06T11:16:02.500Z,68736
2017-04-06T11:17:13.085Z,104352
2017-04-06T11:18:23.959Z,124736
2017-04-06T11:19:35.155Z,133280
2017-04-06T11:20:45.871Z,100512
2017-04-06T11:21:56.439Z,21056
2017-04-06T11:23:07.127Z,20480
2017-04-06T11:24:18.331Z,21248
2017-04-06T11:25:29.492Z,22048
2017-04-06T11:26:40.308Z,108192
2017-04-06T11:27:50.534Z,101600
2017-04-06T11:29:00.785Z,112544
2017-04-06T11:30:43.172Z,127072
2017-04-06T11:31:53.733Z,99264
2017-04-06T11:33:04.291Z,103456
2017-04-06T11:34:15.889Z,21728
2017-04-06T11:35:26.281Z,18400
2017-04-06T11:36:36.825Z,20704
2017-04-06T11:37:47.675Z,123840
2017-04-06T11:38:58.216Z,85440
2017-04-06T11:40:08.721Z,62496
2017-04-06T11:41:19.243Z,50240
2017-04-06T11:42:29.790Z,88800
2017-04-06T11:43:40.563Z,145760
2017-04-06T11:44:51.208Z,133056
2017-04-06T11:46:01.932Z,83840
2017-04-06T11:47:13.424Z,76896
2017-04-06T11:48:24.000Z,92960
2017-04-06T11:49:34.846Z,78752
2017-04-06T11:50:46.495Z,62336
2017-04-06T11:51:56.720Z,90400
2017-04-06T11:53:07.278Z,96672
2017-04-06T11:54:17.980Z,82336
2017-04-06T11:55:28.768Z,49760
2017-04-06T11:56:38.978Z,75392
2017-04-06T11:57:49.653Z,29536
2017-04-06T11:58:59.966Z,96352
2017-04-06T12:00:10.627Z,101600
2017-04-06T12:01:20.701Z,119008
2017-04-06T12:02:31.863Z,115168
2017-04-06T12:03:42.389Z,101408
2017-04-06T12:04:52.374Z,112192
2017-04-06T12:06:03.620Z,120640
2017-04-06T12:07:14.882Z,94560
2017-04-06T12:08:24.816Z,92736
2017-04-06T12:09:36.342Z,123072
2017-04-06T12:10:46.966Z,125792
2017-04-06T12:11:57.210Z,109472
2017-04-06T12:13:08.269Z,124512
2017-04-06T12:14:18.485Z,22816
2017-04-06T12:15:29.023Z,50656
2017-04-06T12:16:39.221Z,26208
2017-04-06T12:17:49.748Z,25984
2017-04-06T12:19:00.569Z,19552
2017-04-06T12:20:10.921Z,17600
2017-04-06T12:21:21.431Z,26112
2017-04-06T12:22:31.683Z,116224
2017-04-06T12:23:41.937Z,81376
2017-04-06T12:24:52.423Z,33376
2017-04-06T12:26:03.271Z,29152
2017-04-06T12:27:13.787Z,29216
2017-04-06T12:28:24.358Z,115552
2017-04-06T12:29:34.890Z,90304
2017-04-06T12:30:45.689Z,109728
2017-04-06T12:31:55.981Z,115296
2017-04-06T12:33:06.507Z,97536
2017-04-06T12:34:17.111Z,96992
2017-04-06T12:35:27.704Z,105696
2017-04-06T12:36:38.572Z,90208
2017-04-06T12:37:48.877Z,52480
2017-04-06T12:38:58.753Z,47136
2017-04-06T12:40:08.634Z,122688
2017-04-06T12:41:19.260Z,119456
2017-04-06T12:42:29.485Z,118144
2017-04-06T12:43:40.084Z,112672
2017-04-06T12:44:51.584Z,100064
2017-04-06T12:46:02.258Z,81856
2017-04-06T12:47:12.139Z,106528
2017-04-06T12:48:22.720Z,23968
2017-04-06T12:49:34.276Z,15748
2017-04-06T12:50:44.524Z,17440
2017-04-06T12:51:55.121Z,91808
2017-04-06T12:53:05.418Z,100288
2017-04-06T12:54:16.178Z,18080
2017-04-06T12:55:26.428Z,30336
2017-04-06T12:56:36.656Z,17696
2017-04-06T12:57:47.293Z,96800
2017-04-06T12:58:57.871Z,51520
2017-04-06T13:00:08.661Z,55168
2017-04-06T13:01:18.856Z,70304
2017-04-06T13:02:29.832Z,91520
2017-04-06T13:03:40.065Z,92320
2017-04-06T13:04:50.575Z,76672
2017-04-06T13:06:01.492Z,69440
2017-04-06T13:07:11.737Z,77952
2017-04-06T13:08:21.717Z,89088
2017-04-06T13:09:31.958Z,83840
2017-04-06T13:10:42.225Z,89056
2017-04-06T13:11:53.060Z,91936
2017-04-06T13:13:03.606Z,89376
2017-04-06T13:14:14.129Z,27104
2017-04-06T13:15:24.369Z,18528
2017-04-06T13:16:34.866Z,68544
2017-04-06T13:17:45.718Z,69664
2017-04-06T13:18:56.272Z,89696
2017-04-06T13:20:07.474Z,101600
2017-04-06T13:21:18.021Z,39328
2017-04-06T13:22:28.286Z,24320
2017-04-06T13:23:40.027Z,14624
2017-04-06T13:24:50.565Z,16832
2017-04-06T13:26:00.750Z,87552
2017-04-06T13:27:11.112Z,88320
2017-04-06T13:28:21.795Z,70496
2017-04-06T13:29:32.543Z,45344
2017-04-06T13:30:42.813Z,81664
2017-04-06T13:31:53.386Z,78016
2017-04-06T13:33:03.603Z,69856
2017-04-06T13:34:14.225Z,100544
2017-04-06T13:35:25.000Z,30240
2017-04-06T13:36:35.513Z,89024
2017-04-06T13:37:46.068Z,25568
2017-04-06T13:38:56.645Z,80608
2017-04-06T13:40:07.267Z,66976
2017-04-06T13:41:17.896Z,16160
2017-04-06T13:42:28.439Z,79840
2017-04-06T13:43:38.978Z,35328
2017-04-06T13:44:50.465Z,19424
2017-04-06T13:46:01.029Z,34624
2017-04-06T13:47:11.875Z,18560
2017-04-06T13:48:23.382Z,19168
2017-04-06T13:49:33.607Z,82944
2017-04-06T13:50:43.944Z,74240
2017-04-06T13:51:54.462Z,64736
2017-04-06T13:53:05.253Z,67936
2017-04-06T13:54:15.444Z,78112
2017-04-06T13:55:25.955Z,77600
2017-04-06T13:56:36.576Z,15744
2017-04-06T13:57:47.350Z,19072
2017-04-06T13:58:58.175Z,77568
2017-04-06T14:00:09.465Z,18208
2017-04-06T14:01:19.992Z,70624
2017-04-06T14:02:30.526Z,72992
2017-04-06T14:03:41.074Z,78720
2017-04-06T14:04:51.518Z,62016
2017-04-06T14:06:02.090Z,78496
2017-04-06T14:07:12.841Z,108576
2017-04-06T14:08:23.610Z,82816
2017-04-06T14:09:34.186Z,62784
2017-04-06T14:10:44.978Z,49792
2017-04-06T14:11:55.281Z,52864
2017-04-06T14:13:05.845Z,48576
2017-04-06T14:14:16.432Z,79776
2017-04-06T14:15:27.015Z,88064
2017-04-06T14:16:37.150Z,17440
2017-04-06T14:17:47.689Z,18176
2017-04-06T14:18:57.948Z,25280
2017-04-06T14:20:08.467Z,30048
2017-04-06T14:21:18.697Z,69920
2017-04-06T14:22:29.446Z,64128
2017-04-06T14:23:40.034Z,76736
2017-04-06T14:24:50.618Z,86336
2017-04-06T14:26:01.323Z,69696
2017-04-06T14:27:11.171Z,64960
2017-04-06T14:28:22.017Z,28064
2017-04-06T14:29:32.693Z,16128
2017-04-06T14:30:42.893Z,23712
2017-04-06T14:31:53.102Z,79680
2017-04-06T14:33:03.718Z,23488
2017-04-06T14:34:14.101Z,53664
2017-04-06T14:35:24.294Z,73376
2017-04-06T14:36:34.520Z,44096
2017-04-06T14:37:45.134Z,25472
2017-04-06T14:38:55.396Z,23648
2017-04-06T14:40:06.219Z,21888
2017-04-06T14:41:16.434Z,21696
2017-04-06T14:42:27.025Z,37792
2017-04-06T14:43:37.250Z,32608
2017-04-06T14:44:47.159Z,49696
2017-04-06T14:45:58.077Z,58208
2017-04-06T14:47:08.359Z,42016
2017-04-06T14:48:18.913Z,53248
2017-04-06T14:49:29.417Z,71872
2017-04-06T14:50:39.611Z,71904
2017-04-06T14:51:50.357Z,56288
2017-04-06T14:53:00.892Z,39680
2017-04-06T14:54:11.446Z,61984
2017-04-06T14:55:21.965Z,61824
2017-04-06T14:56:32.270Z,53568
2017-04-06T14:57:42.453Z,44928
2017-04-06T14:58:53.003Z,30976
2017-04-06T15:00:03.195Z,34912
2017-04-06T15:01:13.533Z,39264
2017-04-06T15:02:23.469Z,39264
2017-04-06T15:03:33.985Z,30592
2017-04-06T15:04:44.203Z,24704
2017-04-06T15:05:55.696Z,23232
2017-04-06T15:07:06.200Z,28064
2017-04-06T15:08:16.694Z,24672
2017-04-06T15:09:27.501Z,28896
2017-04-06T15:10:38.023Z,33536
2017-04-06T15:11:48.226Z,26304
2017-04-06T15:12:58.933Z,31360
2017-04-06T15:14:10.494Z,34304
2017-04-06T15:15:20.942Z,36544
2017-04-06T15:16:31.134Z,21504
2017-04-06T15:17:41.672Z,21152
2017-04-06T15:18:52.268Z,24896
2017-04-06T15:20:02.798Z,22176
2017-04-06T15:21:13.559Z,19104
2017-04-06T15:22:24.077Z,27616
2017-04-06T15:23:35.553Z,26496
2017-04-06T15:24:47.070Z,32192
2017-04-06T15:25:57.310Z,16000
2017-04-06T15:27:07.758Z,16800
2017-04-06T15:28:18.265Z,30688
2017-04-06T15:29:28.476Z,35040
2017-04-06T15:30:39.031Z,30272
2017-04-06T15:31:49.395Z,33376
2017-04-06T15:32:59.923Z,33152
2017-04-06T15:34:10.434Z,32352
2017-04-06T15:35:20.844Z,30336
2017-04-06T15:36:31.059Z,28576
2017-04-06T15:37:41.617Z,24800
2017-04-06T15:38:52.586Z,11572
2017-04-06T15:40:03.100Z,10352
2017-04-06T15:41:13.309Z,9788
2017-04-06T15:42:23.829Z,9500
2017-04-06T15:43:33.979Z,9204